createdAt,value
2019-04-10T00:02:24.498Z,8.50
2019-04-10T00:04:53.627Z,8.50
2019-04-10T00:07:22.237Z,8.50
2019-04-10T00:09:51.697Z,8.40
2019-04-10T00:12:21.223Z,8.50
2019-04-10T00:14:50.446Z,8.30
2019-04-10T00:17:19.203Z,8.30
2019-04-10T00:19:47.755Z,8.30
2019-04-10T00:22:16.225Z,8.30
2019-04-10T00:24:44.709Z,8.20
2019-04-10T00:27:13.250Z,8.30
2019-04-10T00:29:42.506Z,8.20
2019-04-10T00:32:11.929Z,8.20
2019-04-10T00:34:40.508Z,8.10
2019-04-10T00:37:20.482Z,8.10
2019-04-10T00:39:39.223Z,8.10
2019-04-10T00:42:08.460Z,8.00
2019-04-10T00:44:37.515Z,8.00
2019-04-10T00:47:06.582Z,8.00
2019-04-10T00:49:35.224Z,8.10
2019-04-10T00:52:03.881Z,8.10
2019-04-10T00:54:33.067Z,8.00
2019-04-10T00:57:01.661Z,8.00
2019-04-10T00:59:30.388Z,8.00
2019-04-10T01:01:58.872Z,7.90
2019-04-10T01:04:28.609Z,8.00
2019-04-10T01:06:57.544Z,7.90
2019-04-10T01:09:26.043Z,7.90
2019-04-10T01:11:55.240Z,7.80
2019-04-10T01:14:23.731Z,7.80
2019-04-10T01:16:52.192Z,7.70
2019-04-10T01:19:20.788Z,7.80
2019-04-10T01:21:49.400Z,7.80
2019-04-10T01:24:17.866Z,7.80
2019-04-10T01:26:47.497Z,7.70
2019-04-10T01:29:16.239Z,7.70
2019-04-10T01:31:45.515Z,7.60
2019-04-10T01:34:14.059Z,7.60
2019-04-10T01:36:42.533Z,7.60
2019-04-10T01:39:13.734Z,7.50
2019-04-10T01:41:42.378Z,7.50
2019-04-10T01:44:11.116Z,7.60
2019-04-10T01:46:40.260Z,7.40
2019-04-10T01:49:09.267Z,7.40
2019-04-10T01:51:37.790Z,7.40
2019-04-10T01:54:06.888Z,7.30
2019-04-10T01:56:36.774Z,7.20
2019-04-10T01:59:05.745Z,7.20
2019-04-10T02:01:42.870Z,7.00
2019-04-10T02:04:11.856Z,7.00
2019-04-10T02:06:41.200Z,7.20
2019-04-10T02:09:10.937Z,7.10
2019-04-10T02:11:40.049Z,6.90
2019-04-10T02:14:08.964Z,7.10
2019-04-10T02:16:38.916Z,6.90
2019-04-10T02:19:08.212Z,6.80
2019-04-10T02:21:38.000Z,6.90
2019-04-10T02:24:07.111Z,6.80
2019-04-10T02:26:36.020Z,6.70
2019-04-10T02:29:05.053Z,6.60
2019-04-10T02:31:34.569Z,6.70
2019-04-10T02:34:04.791Z,6.50
2019-04-10T02:36:34.419Z,6.60
2019-04-10T02:39:17.640Z,6.60
2019-04-10T02:41:36.439Z,6.50
2019-04-10T02:44:05.205Z,6.60
2019-04-10T02:46:33.716Z,6.60
2019-04-10T02:49:03.768Z,6.40
2019-04-10T02:51:32.598Z,6.50
2019-04-10T02:54:02.523Z,6.70
2019-04-10T02:56:32.636Z,6.40
2019-04-10T02:59:02.826Z,6.30
2019-04-10T03:01:31.617Z,6.30
2019-04-10T03:04:01.391Z,6.20
2019-04-10T03:06:31.154Z,6.20
2019-04-10T03:09:14.490Z,6.30
2019-04-10T03:11:31.295Z,6.20
2019-04-10T03:14:01.395Z,6.20
2019-04-10T03:16:31.162Z,6.20
2019-04-10T03:18:59.877Z,6.10
2019-04-10T03:21:29.242Z,6.30
2019-04-10T03:23:58.015Z,6.20
2019-04-10T03:26:27.817Z,6.00
2019-04-10T03:28:57.642Z,6.00
2019-04-10T03:31:27.799Z,5.70
2019-04-10T03:33:58.640Z,5.80
2019-04-10T03:36:29.925Z,6.00
2019-04-10T03:39:01.852Z,5.90
2019-04-10T03:41:28.592Z,5.80
2019-04-10T03:43:57.125Z,5.70
2019-04-10T03:46:25.699Z,5.70
2019-04-10T03:48:54.216Z,5.60
2019-04-10T03:51:22.895Z,5.60
2019-04-10T03:53:51.528Z,5.60
2019-04-10T03:56:20.038Z,5.60
2019-04-10T03:58:49.444Z,5.60
2019-04-10T04:01:18.652Z,5.60
2019-04-10T04:03:47.156Z,5.50
2019-04-10T04:06:15.607Z,5.40
2019-04-10T04:08:45.815Z,5.40
2019-04-10T04:11:15.616Z,5.40
2019-04-10T04:13:44.274Z,5.40
2019-04-10T04:16:12.921Z,5.50
2019-04-10T04:18:43.518Z,5.30
2019-04-10T04:21:11.983Z,5.20
2019-04-10T04:23:40.460Z,5.20
2019-04-10T04:26:08.924Z,5.20
2019-04-10T04:28:37.374Z,5.40
2019-04-10T04:31:05.926Z,5.30
2019-04-10T04:33:34.445Z,5.20
2019-04-10T04:36:03.868Z,5.10
2019-04-10T04:38:32.487Z,5.10
2019-04-10T04:41:00.962Z,5.00
2019-04-10T04:43:30.558Z,5.00
2019-04-10T04:45:59.220Z,5.10
2019-04-10T04:48:28.427Z,5.10
2019-04-10T04:50:56.978Z,5.00
2019-04-10T04:53:26.055Z,5.00
2019-04-10T04:55:55.458Z,5.00
2019-04-10T04:58:24.351Z,5.00
2019-04-10T05:00:52.885Z,4.90
2019-04-10T05:03:21.360Z,5.00
2019-04-10T05:05:49.999Z,4.90
2019-04-10T05:08:18.700Z,4.80
2019-04-10T05:10:47.467Z,4.80
2019-04-10T05:13:16.012Z,4.90
2019-04-10T05:15:44.950Z,4.90
2019-04-10T05:18:14.621Z,4.90
2019-04-10T05:20:47.231Z,4.90
2019-04-10T05:23:13.902Z,4.90
2019-04-10T05:25:43.422Z,4.70
2019-04-10T05:28:11.917Z,4.70
2019-04-10T05:30:41.123Z,4.60
2019-04-10T05:33:09.599Z,4.50
2019-04-10T05:35:38.074Z,4.50
2019-04-10T05:38:06.605Z,4.70
2019-04-10T05:40:36.775Z,4.70
2019-04-10T05:43:05.888Z,4.60
2019-04-10T05:45:34.516Z,4.60
2019-04-10T05:48:03.361Z,4.60
2019-04-10T05:50:32.047Z,4.60
2019-04-10T05:53:00.612Z,4.60
2019-04-10T05:55:29.053Z,4.50
2019-04-10T05:57:58.122Z,4.60
2019-04-10T06:00:27.048Z,4.70
2019-04-10T06:02:56.434Z,4.50
2019-04-10T06:05:25.074Z,4.40
2019-04-10T06:07:53.875Z,4.40
2019-04-10T06:10:22.424Z,4.50
2019-04-10T06:12:50.885Z,4.60
2019-04-10T06:15:19.324Z,4.80
2019-04-10T06:17:48.921Z,4.60
2019-04-10T06:20:18.502Z,4.50
2019-04-10T06:22:47.363Z,4.70
2019-04-10T06:25:16.578Z,4.90
2019-04-10T06:27:46.234Z,5.00
2019-04-10T06:30:15.419Z,5.20
2019-04-10T06:32:45.338Z,5.30
2019-04-10T06:35:15.512Z,5.30
2019-04-10T06:37:44.236Z,5.40
2019-04-10T06:40:18.798Z,5.70
2019-04-10T06:42:48.288Z,5.60
2019-04-10T06:45:13.448Z,5.30
2019-04-10T06:47:42.489Z,5.50
2019-04-10T06:50:11.182Z,5.60
2019-04-10T06:52:39.656Z,5.80
2019-04-10T06:55:09.254Z,5.90
2019-04-10T06:57:46.839Z,5.80
2019-04-10T07:00:13.727Z,5.80
2019-04-10T07:02:40.263Z,5.90
2019-04-10T07:05:10.858Z,6.20
2019-04-10T07:07:47.747Z,6.30
2019-04-10T07:10:20.635Z,6.30
2019-04-10T07:12:39.776Z,6.10
2019-04-10T07:15:08.820Z,6.10
2019-04-10T07:17:40.647Z,6.30
2019-04-10T07:20:09.410Z,6.40
2019-04-10T07:22:43.317Z,6.60
2019-04-10T07:25:10.376Z,6.80
2019-04-10T07:27:40.529Z,6.70
2019-04-10T07:30:09.868Z,6.60
2019-04-10T07:32:41.736Z,6.60
2019-04-10T07:35:13.938Z,6.60
2019-04-10T07:37:42.513Z,7.00
2019-04-10T07:40:12.255Z,6.90
2019-04-10T07:42:42.956Z,6.90
2019-04-10T07:45:11.171Z,7.10
2019-04-10T07:47:39.901Z,7.00
2019-04-10T07:50:10.239Z,7.20
2019-04-10T07:52:38.827Z,7.40
2019-04-10T07:55:08.499Z,7.50
2019-04-10T07:57:37.410Z,7.50
2019-04-10T08:00:11.119Z,7.50
2019-04-10T08:02:40.589Z,7.80
2019-04-10T08:05:10.206Z,7.90
2019-04-10T08:07:40.195Z,8.30
2019-04-10T08:10:10.017Z,8.40
2019-04-10T08:12:45.877Z,8.50
2019-04-10T08:15:09.223Z,8.90
2019-04-10T08:17:38.865Z,9.20
2019-04-10T08:20:07.923Z,9.00
2019-04-10T08:22:37.107Z,9.00
2019-04-10T08:25:08.890Z,8.70
2019-04-10T08:27:38.408Z,9.20
2019-04-10T08:30:10.810Z,9.20
2019-04-10T08:32:50.963Z,9.60
2019-04-10T08:35:09.096Z,9.80
2019-04-10T08:37:38.929Z,9.90
2019-04-10T08:40:09.628Z,10.10
2019-04-10T08:42:40.239Z,9.80
2019-04-10T08:45:09.243Z,10.20
2019-04-10T08:47:37.858Z,10.50
2019-04-10T08:50:07.776Z,10.10
2019-04-10T08:52:37.032Z,10.30
2019-04-10T08:55:06.273Z,10.80
2019-04-10T08:57:34.807Z,11.00
2019-04-10T09:00:05.291Z,11.20
2019-04-10T09:02:33.949Z,11.50
2019-04-10T09:05:03.537Z,11.50
2019-04-10T09:07:32.523Z,11.90
2019-04-10T09:10:01.890Z,11.50
2019-04-10T09:12:31.576Z,11.50
2019-04-10T09:15:01.365Z,10.80
2019-04-10T09:17:31.251Z,10.70
2019-04-10T09:20:00.568Z,11.20
2019-04-10T09:22:44.113Z,11.70
2019-04-10T09:25:00.588Z,12.20
2019-04-10T09:27:29.309Z,12.00
2019-04-10T09:29:57.903Z,11.60
2019-04-10T09:32:26.487Z,11.80
2019-04-10T09:34:56.077Z,12.30
2019-04-10T09:37:25.913Z,12.30
2019-04-10T09:39:56.154Z,12.20
2019-04-10T09:42:25.620Z,12.10
2019-04-10T09:44:54.852Z,12.20
2019-04-10T09:47:23.466Z,11.40
2019-04-10T09:49:51.918Z,11.90
2019-04-10T09:52:21.515Z,12.00
2019-04-10T09:54:51.003Z,12.20
2019-04-10T09:57:20.124Z,12.90
2019-04-10T09:59:48.971Z,12.80
2019-04-10T10:02:17.702Z,12.90
2019-04-10T10:04:46.440Z,13.30
2019-04-10T10:07:14.911Z,13.50
2019-04-10T10:09:43.376Z,13.30
2019-04-10T10:12:11.848Z,13.10
2019-04-10T10:14:40.380Z,12.90
2019-04-10T10:17:08.917Z,12.70
2019-04-10T10:19:39.155Z,12.80
2019-04-10T10:22:07.784Z,12.30
2019-04-10T10:24:38.223Z,12.30
2019-04-10T10:27:07.439Z,12.70
2019-04-10T10:29:36.072Z,12.80
2019-04-10T10:32:04.704Z,12.80
2019-04-10T10:34:33.275Z,13.30
2019-04-10T10:37:03.521Z,12.90
2019-04-10T10:39:31.905Z,12.60
2019-04-10T10:42:00.363Z,12.90
2019-04-10T10:44:30.116Z,12.70
2019-04-10T10:46:59.938Z,13.40
2019-04-10T10:49:28.744Z,13.40
2019-04-10T10:51:57.464Z,13.70
2019-04-10T10:54:26.847Z,13.70
2019-04-10T10:56:56.279Z,13.30
2019-04-10T10:59:25.225Z,13.50
2019-04-10T11:01:53.967Z,13.80
2019-04-10T11:04:23.231Z,13.80
2019-04-10T11:06:59.345Z,13.40
2019-04-10T11:09:22.142Z,13.40
2019-04-10T11:11:50.620Z,13.30
2019-04-10T11:14:19.213Z,14.10
2019-04-10T11:16:47.833Z,13.70
2019-04-10T11:19:17.275Z,14.20
2019-04-10T11:21:46.979Z,14.50
2019-04-10T11:24:15.727Z,14.90
2019-04-10T11:26:44.194Z,14.60
2019-04-10T11:29:14.224Z,14.80
2019-04-10T11:31:43.266Z,14.70
2019-04-10T11:34:11.877Z,14.20
2019-04-10T11:36:42.395Z,14.00
2019-04-10T11:41:41.318Z,14.80
2019-04-10T11:44:11.549Z,14.80
2019-04-10T11:46:41.853Z,14.40
2019-04-10T11:49:14.005Z,14.50
2019-04-10T11:51:41.090Z,15.20
2019-04-10T11:56:39.957Z,15.70
2019-04-10T11:59:11.276Z,15.30
2019-04-10T12:01:39.236Z,16.10
2019-04-10T12:04:10.185Z,15.70
2019-04-10T12:06:40.307Z,15.80
2019-04-10T12:11:41.554Z,16.00
2019-04-10T12:14:11.125Z,16.10
2019-04-10T12:16:39.663Z,15.40
2019-04-10T12:19:08.122Z,15.00
2019-04-10T12:21:36.656Z,15.10
2019-04-10T12:24:05.463Z,15.10
2019-04-10T12:26:33.994Z,15.10
2019-04-10T12:29:02.603Z,16.10
2019-04-10T12:31:32.986Z,15.00
2019-04-10T12:34:01.495Z,15.30
2019-04-10T12:36:31.001Z,14.80
2019-04-10T12:39:00.345Z,14.90
2019-04-10T12:41:29.009Z,15.60
2019-04-10T12:43:57.621Z,15.20
2019-04-10T12:46:26.800Z,15.30
2019-04-10T12:48:55.482Z,15.60
2019-04-10T12:51:23.950Z,15.20
2019-04-10T12:53:52.420Z,15.00
2019-04-10T12:56:21.948Z,15.80
2019-04-10T12:58:50.995Z,15.70
2019-04-10T13:01:20.466Z,15.40
2019-04-10T13:03:49.487Z,15.40
2019-04-10T13:06:18.101Z,15.70
2019-04-10T13:08:59.191Z,15.50
2019-04-10T13:11:16.954Z,15.60
2019-04-10T13:13:46.325Z,15.30
2019-04-10T13:16:16.076Z,15.40
2019-04-10T13:18:44.825Z,15.50
2019-04-10T13:21:14.596Z,15.60
2019-04-10T13:23:43.218Z,15.50
2019-04-10T13:26:11.663Z,15.30
2019-04-10T13:28:40.128Z,15.40
2019-04-10T13:31:08.870Z,15.10
2019-04-10T13:33:38.479Z,15.00
2019-04-10T13:36:07.233Z,15.20
2019-04-10T13:38:36.952Z,15.00
2019-04-10T13:41:06.581Z,15.20
2019-04-10T13:43:36.000Z,15.00
2019-04-10T13:46:04.712Z,14.60
2019-04-10T13:48:33.452Z,15.00
2019-04-10T13:51:03.254Z,15.50
2019-04-10T13:53:32.204Z,15.30
2019-04-10T13:56:01.032Z,15.50
2019-04-10T13:58:29.516Z,14.80
2019-04-10T14:00:58.785Z,14.70
2019-04-10T14:03:28.026Z,14.90
2019-04-10T14:05:57.058Z,15.20
2019-04-10T14:08:40.482Z,15.00
2019-04-10T14:10:58.504Z,14.70
2019-04-10T14:13:27.604Z,15.60
2019-04-10T14:15:56.266Z,15.40
2019-04-10T14:18:24.711Z,15.10
2019-04-10T14:20:53.473Z,14.90
2019-04-10T14:23:29.430Z,15.10
2019-04-10T14:26:16.157Z,15.10
2019-04-10T14:28:45.362Z,15.40
2019-04-10T14:31:18.480Z,15.00
2019-04-10T14:33:47.099Z,14.30
2019-04-10T14:36:15.923Z,14.30
2019-04-10T14:38:45.339Z,14.60
2019-04-10T14:41:13.890Z,14.20
2019-04-10T14:43:43.786Z,14.20
2019-04-10T14:46:12.571Z,14.20
2019-04-10T14:48:41.103Z,14.40
2019-04-10T14:51:10.256Z,14.60
2019-04-10T14:53:39.386Z,14.40
2019-04-10T14:56:08.329Z,14.30
2019-04-10T14:58:37.010Z,13.90
2019-04-10T15:01:08.415Z,14.00
2019-04-10T15:03:36.163Z,14.10
2019-04-10T15:06:05.199Z,14.40
2019-04-10T15:08:33.741Z,14.50
2019-04-10T15:11:04.546Z,14.50
2019-04-10T15:13:33.937Z,14.40
2019-04-10T15:16:03.003Z,14.20
2019-04-10T15:18:31.595Z,14.20
2019-04-10T15:21:00.703Z,13.80
2019-04-10T15:23:29.598Z,13.90
2019-04-10T15:25:58.199Z,14.00
2019-04-10T15:28:27.466Z,13.90
2019-04-10T15:30:57.199Z,13.50
2019-04-10T15:33:26.696Z,13.50
2019-04-10T15:35:55.490Z,13.50
2019-04-10T15:38:24.168Z,13.40
2019-04-10T15:40:52.706Z,13.60
2019-04-10T15:43:23.423Z,13.40
2019-04-10T15:45:52.313Z,13.20
2019-04-10T15:48:21.005Z,13.10
2019-04-10T15:50:49.890Z,13.10
2019-04-10T15:53:18.512Z,13.20
2019-04-10T15:55:47.611Z,13.40
2019-04-10T15:58:17.291Z,13.20
2019-04-10T16:00:45.867Z,13.30
2019-04-10T16:03:15.374Z,13.40
2019-04-10T16:05:44.175Z,13.20
2019-04-10T16:08:14.219Z,13.00
2019-04-10T16:10:46.194Z,12.90
2019-04-10T16:13:16.581Z,12.80
2019-04-10T16:15:45.230Z,12.80
2019-04-10T16:18:15.644Z,12.80
2019-04-10T16:20:45.538Z,12.90
2019-04-10T16:23:16.374Z,12.60
2019-04-10T16:25:46.830Z,12.50
2019-04-10T16:28:15.430Z,12.70
2019-04-10T16:30:43.980Z,12.50
2019-04-10T16:33:12.439Z,12.60
2019-04-10T16:35:40.982Z,12.50
2019-04-10T16:38:09.510Z,12.50
2019-04-10T16:40:38.366Z,12.50
2019-04-10T16:43:07.851Z,12.60
2019-04-10T16:45:36.624Z,12.40
2019-04-10T16:48:06.351Z,12.20
2019-04-10T16:50:36.297Z,12.20
2019-04-10T16:53:05.475Z,12.10
2019-04-10T16:55:34.621Z,12.10
2019-04-10T16:58:03.242Z,12.10
2019-04-10T17:00:31.861Z,12.20
2019-04-10T17:03:00.387Z,12.00
2019-04-10T17:05:28.851Z,12.00
2019-04-10T17:07:57.400Z,12.00
2019-04-10T17:10:28.996Z,11.90
2019-04-10T17:12:58.291Z,11.80
2019-04-10T17:15:28.058Z,11.80
2019-04-10T17:17:56.966Z,11.80
2019-04-10T17:20:26.622Z,11.80
2019-04-10T17:22:56.234Z,12.00
2019-04-10T17:25:26.253Z,11.70
2019-04-10T17:27:56.179Z,11.70
2019-04-10T17:30:25.458Z,11.60
2019-04-10T17:32:54.347Z,11.40
2019-04-10T17:35:23.459Z,11.40
2019-04-10T17:37:52.060Z,11.50
2019-04-10T17:40:31.982Z,11.50
2019-04-10T17:42:54.740Z,11.70
2019-04-10T17:45:25.530Z,11.60
2019-04-10T17:47:55.270Z,11.30
2019-04-10T17:50:24.636Z,11.40
2019-04-10T17:52:53.505Z,11.50
2019-04-10T17:55:23.092Z,11.20
2019-04-10T17:57:54.493Z,11.10
2019-04-10T18:00:25.166Z,11.10
2019-04-10T18:02:54.980Z,11.10
2019-04-10T18:05:23.730Z,10.90
2019-04-10T18:07:52.435Z,10.70
2019-04-10T18:10:21.068Z,10.70
2019-04-10T18:12:49.633Z,10.70
2019-04-10T18:15:18.087Z,10.80
2019-04-10T18:17:47.161Z,10.70
2019-04-10T18:20:15.868Z,10.60
2019-04-10T18:22:44.907Z,10.60
2019-04-10T18:25:13.866Z,10.50
2019-04-10T18:27:42.824Z,10.40
2019-04-10T18:30:12.055Z,10.30
2019-04-10T18:32:40.649Z,10.30
2019-04-10T18:35:09.197Z,10.30
2019-04-10T18:37:37.738Z,10.20
2019-04-10T18:40:07.495Z,10.20
2019-04-10T18:42:37.296Z,10.10
2019-04-10T18:45:09.485Z,10.30
2019-04-10T18:47:39.279Z,10.10
2019-04-10T18:50:08.299Z,9.90
2019-04-10T18:52:37.380Z,10.00
2019-04-10T18:55:06.411Z,10.20
2019-04-10T18:57:35.729Z,10.10
2019-04-10T19:00:24.551Z,10.10
2019-04-10T19:02:54.665Z,10.00
2019-04-10T19:05:24.819Z,9.70
2019-04-10T19:07:54.370Z,9.70
2019-04-10T19:10:23.085Z,9.50
2019-04-10T19:12:52.785Z,9.50
2019-04-10T19:15:22.399Z,9.50
2019-04-10T19:17:51.116Z,9.40
2019-04-10T19:20:19.781Z,9.30
2019-04-10T19:22:48.681Z,9.20
2019-04-10T19:25:18.680Z,9.20
2019-04-10T19:27:48.507Z,9.20
2019-04-10T19:30:31.324Z,9.10
2019-04-10T19:32:59.791Z,9.10
2019-04-10T19:35:28.802Z,9.00
2019-04-10T19:37:57.843Z,8.90
2019-04-10T19:40:27.733Z,8.80
2019-04-10T19:42:57.694Z,8.60
2019-04-10T19:45:27.953Z,8.50
2019-04-10T19:47:56.982Z,8.50
2019-04-10T19:50:25.686Z,8.40
2019-04-10T19:52:55.048Z,8.40
2019-04-10T19:55:23.977Z,8.40
2019-04-10T19:57:53.333Z,8.30
2019-04-10T20:00:24.239Z,8.20
2019-04-10T20:02:52.821Z,8.10
2019-04-10T20:05:21.422Z,8.10
2019-04-10T20:07:49.968Z,8.10
2019-04-10T20:10:19.267Z,8.20
2019-04-10T20:12:48.746Z,8.00
2019-04-10T20:15:18.402Z,7.90
2019-04-10T20:17:46.936Z,7.90
2019-04-10T20:20:15.541Z,7.90
2019-04-10T20:22:43.983Z,7.90
2019-04-10T20:25:12.655Z,7.80
2019-04-10T20:27:41.118Z,8.00
2019-04-10T20:30:12.050Z,7.80
2019-04-10T20:32:41.873Z,7.80
2019-04-10T20:35:11.825Z,7.70
2019-04-10T20:37:40.714Z,7.70
2019-04-10T20:40:09.700Z,7.70
2019-04-10T20:42:38.398Z,7.50
2019-04-10T20:45:07.449Z,7.60
2019-04-10T20:47:37.207Z,7.50
2019-04-10T20:50:06.047Z,7.40
2019-04-10T20:52:34.694Z,7.50
2019-04-10T20:55:03.828Z,7.40
2019-04-10T20:57:32.305Z,7.40
2019-04-10T21:00:01.725Z,7.30
2019-04-10T21:02:30.708Z,7.20
2019-04-10T21:05:03.139Z,7.10
2019-04-10T21:07:29.829Z,7.10
2019-04-10T21:09:58.745Z,7.10
2019-04-10T21:12:27.996Z,7.10
2019-04-10T21:14:56.735Z,7.10
2019-04-10T21:17:25.294Z,7.00
2019-04-10T21:19:53.829Z,7.00
2019-04-10T21:22:22.467Z,6.90
2019-04-10T21:24:51.986Z,7.00
2019-04-10T21:27:20.818Z,6.90
2019-04-10T21:29:50.953Z,6.90
2019-04-10T21:32:28.144Z,6.80
2019-04-10T21:34:57.562Z,6.70
2019-04-10T21:37:26.365Z,6.80
2019-04-10T21:39:54.799Z,6.60
2019-04-10T21:42:25.340Z,6.60
2019-04-10T21:44:53.454Z,6.70
2019-04-10T21:47:21.973Z,6.50
2019-04-10T21:49:50.564Z,6.60
2019-04-10T21:52:19.028Z,6.50
2019-04-10T21:54:52.764Z,6.50
2019-04-10T21:57:18.173Z,6.40
2019-04-10T21:59:47.553Z,6.40
2019-04-10T22:02:17.368Z,6.40
2019-04-10T22:04:46.236Z,6.20
2019-04-10T22:07:20.299Z,6.20
2019-04-10T22:09:53.538Z,6.10
2019-04-10T22:12:31.145Z,6.10
2019-04-10T22:14:54.027Z,6.10
2019-04-10T22:17:22.698Z,6.00
2019-04-10T22:19:51.370Z,6.00
2019-04-10T22:22:20.315Z,5.80
2019-04-10T22:24:48.905Z,5.90
2019-04-10T22:27:17.419Z,5.90
2019-04-10T22:29:46.873Z,5.80
2019-04-10T22:32:16.402Z,5.90
2019-04-10T22:34:44.980Z,5.90
2019-04-10T22:37:15.495Z,5.90
2019-04-10T22:39:43.794Z,5.80
2019-04-10T22:42:12.956Z,5.80
2019-04-10T22:44:45.229Z,5.80
2019-04-10T22:47:11.810Z,5.70
2019-04-10T22:49:40.398Z,5.70
2019-04-10T22:52:10.836Z,5.60
2019-04-10T22:54:39.484Z,5.50
2019-04-10T22:57:08.024Z,5.50
2019-04-10T22:59:36.481Z,5.70
2019-04-10T23:02:10.537Z,5.60
2019-04-10T23:04:35.294Z,5.60
2019-04-10T23:07:04.018Z,5.50
2019-04-10T23:09:32.700Z,5.50
2019-04-10T23:12:02.237Z,5.70
2019-04-10T23:14:31.200Z,5.60
2019-04-10T23:17:00.145Z,5.60
2019-04-10T23:19:29.939Z,5.50
2019-04-10T23:21:58.804Z,5.40
2019-04-10T23:24:27.746Z,5.50
2019-04-10T23:26:57.502Z,5.50
2019-04-10T23:29:26.375Z,5.40
2019-04-10T23:31:56.150Z,5.30
2019-04-10T23:34:25.119Z,5.30
2019-04-10T23:36:54.100Z,5.30
2019-04-10T23:39:22.627Z,5.30
2019-04-10T23:41:52.374Z,5.30
2019-04-10T23:44:20.940Z,5.30
2019-04-10T23:46:49.530Z,5.20
2019-04-10T23:49:18.086Z,5.20
2019-04-10T23:51:47.404Z,5.20
2019-04-10T23:54:15.968Z,5.10
2019-04-10T23:56:47.647Z,5.10
2019-04-10T23:59:14.964Z,5.20
